sensor_id;sensor_type;location;lat;lon;timestamp;temperature;humidity
66670;DHT22;53568;52.164;4.472;2022-09-29T00:00:19;12.65;73.92
66670;DHT22;53568;52.164;4.472;2022-09-29T00:02:45;12.65;73.84
66670;DHT22;53568;52.164;4.472;2022-09-29T00:05:10;12.65;73.70
66670;DHT22;53568;52.164;4.472;2022-09-29T00:07:36;12.65;73.19
66670;DHT22;53568;52.164;4.472;2022-09-29T00:10:02;12.53;73.63
66670;DHT22;53568;52.164;4.472;2022-09-29T00:12:27;12.52;73.95
66670;DHT22;53568;52.164;4.472;2022-09-29T00:14:53;12.53;73.86
66670;DHT22;53568;52.164;4.472;2022-09-29T00:17:19;12.50;73.70
66670;DHT22;53568;52.164;4.472;2022-09-29T00:19:44;12.53;73.68
66670;DHT22;53568;52.164;4.472;2022-09-29T00:22:09;12.52;73.57
66670;DHT22;53568;52.164;4.472;2022-09-29T00:24:35;12.52;73.62
66670;DHT22;53568;52.164;4.472;2022-09-29T00:27:01;12.52;73.58
66670;DHT22;53568;52.164;4.472;2022-09-29T00:29:26;12.50;73.64
66670;DHT22;53568;52.164;4.472;2022-09-29T00:31:52;12.50;73.69
66670;DHT22;53568;52.164;4.472;2022-09-29T00:34:18;12.55;73.57
66670;DHT22;53568;52.164;4.472;2022-09-29T00:36:43;12.53;73.67
66670;DHT22;53568;52.164;4.472;2022-09-29T00:39:09;12.55;73.68
66670;DHT22;53568;52.164;4.472;2022-09-29T00:41:37;12.60;73.32
66670;DHT22;53568;52.164;4.472;2022-09-29T00:47:02;12.52;73.17
66670;DHT22;53568;52.164;4.472;2022-09-29T00:49:38;12.45;73.65
66670;DHT22;53568;52.164;4.472;2022-09-29T00:52:27;12.39;73.97
66670;DHT22;53568;52.164;4.472;2022-09-29T00:55:05;12.31;74.28
66670;DHT22;53568;52.164;4.472;2022-09-29T00:57:48;12.29;74.49
66670;DHT22;53568;52.164;4.472;2022-09-29T01:00:15;12.28;74.69
66670;DHT22;53568;52.164;4.472;2022-09-29T01:03:00;12.31;74.70
66670;DHT22;53568;52.164;4.472;2022-09-29T01:05:39;12.33;74.36
66670;DHT22;53568;52.164;4.472;2022-09-29T01:11:22;12.31;74.71
66670;DHT22;53568;52.164;4.472;2022-09-29T01:13:48;12.31;74.46
66670;DHT22;53568;52.164;4.472;2022-09-29T01:16:13;12.31;74.53
66670;DHT22;53568;52.164;4.472;2022-09-29T01:18:41;12.32;74.49
66670;DHT22;53568;52.164;4.472;2022-09-29T01:24:29;12.31;74.65
66670;DHT22;53568;52.164;4.472;2022-09-29T01:30:04;12.33;75.33
66670;DHT22;53568;52.164;4.472;2022-09-29T01:35:47;12.46;75.12
66670;DHT22;53568;52.164;4.472;2022-09-29T01:38:38;12.46;75.10
66670;DHT22;53568;52.164;4.472;2022-09-29T01:46:55;12.35;75.47
66670;DHT22;53568;52.164;4.472;2022-09-29T01:49:25;12.25;75.58
66670;DHT22;53568;52.164;4.472;2022-09-29T01:52:07;12.26;75.79
66670;DHT22;53568;52.164;4.472;2022-09-29T01:57:30;12.28;76.02
66670;DHT22;53568;52.164;4.472;2022-09-29T02:00:06;12.29;76.20
66670;DHT22;53568;52.164;4.472;2022-09-29T02:05:28;12.28;76.23
66670;DHT22;53568;52.164;4.472;2022-09-29T02:08:04;12.33;76.20
66670;DHT22;53568;52.164;4.472;2022-09-29T02:10:36;12.38;75.91
66670;DHT22;53568;52.164;4.472;2022-09-29T02:13:09;12.38;75.82
66670;DHT22;53568;52.164;4.472;2022-09-29T02:15:39;12.33;75.94
66670;DHT22;53568;52.164;4.472;2022-09-29T02:18:26;12.38;75.89
66670;DHT22;53568;52.164;4.472;2022-09-29T02:20:53;12.39;75.92
66670;DHT22;53568;52.164;4.472;2022-09-29T02:23:18;12.39;75.91
66670;DHT22;53568;52.164;4.472;2022-09-29T02:25:47;12.43;75.80
66670;DHT22;53568;52.164;4.472;2022-09-29T02:28:16;12.41;75.72
66670;DHT22;53568;52.164;4.472;2022-09-29T02:30:41;12.46;75.51
66670;DHT22;53568;52.164;4.472;2022-09-29T02:33:18;12.42;75.16
66670;DHT22;53568;52.164;4.472;2022-09-29T02:38:41;12.33;75.37
66670;DHT22;53568;52.164;4.472;2022-09-29T02:41:32;12.29;75.41
66670;DHT22;53568;52.164;4.472;2022-09-29T02:49:36;12.24;75.58
66670;DHT22;53568;52.164;4.472;2022-09-29T02:55:06;12.29;74.95
66670;DHT22;53568;52.164;4.472;2022-09-29T03:00:12;12.14;75.08
66670;DHT22;53568;52.164;4.472;2022-09-29T03:02:40;12.04;75.52
66670;DHT22;53568;52.164;4.472;2022-09-29T03:05:18;12.05;75.47
66670;DHT22;53568;52.164;4.472;2022-09-29T03:07:44;12.02;75.62
66670;DHT22;53568;52.164;4.472;2022-09-29T03:10:12;11.99;75.83
66670;DHT22;53568;52.164;4.472;2022-09-29T03:12:38;12.02;75.43
66670;DHT22;53568;52.164;4.472;2022-09-29T03:15:04;11.99;75.43
66670;DHT22;53568;52.164;4.472;2022-09-29T03:17:31;11.91;75.80
66670;DHT22;53568;52.164;4.472;2022-09-29T03:19:56;11.85;75.97
66670;DHT22;53568;52.164;4.472;2022-09-29T03:22:22;11.88;75.81
66670;DHT22;53568;52.164;4.472;2022-09-29T03:24:48;11.88;75.70
66670;DHT22;53568;52.164;4.472;2022-09-29T03:27:13;11.94;75.59
66670;DHT22;53568;52.164;4.472;2022-09-29T03:29:39;11.90;75.48
66670;DHT22;53568;52.164;4.472;2022-09-29T03:32:04;11.95;75.14
66670;DHT22;53568;52.164;4.472;2022-09-29T03:34:31;11.88;75.25
66670;DHT22;53568;52.164;4.472;2022-09-29T03:36:56;11.87;75.22
66670;DHT22;53568;52.164;4.472;2022-09-29T03:39:23;11.80;75.44
66670;DHT22;53568;52.164;4.472;2022-09-29T03:41:48;11.78;75.67
66670;DHT22;53568;52.164;4.472;2022-09-29T03:44:14;11.73;75.87
66670;DHT22;53568;52.164;4.472;2022-09-29T03:46:40;11.68;76.01
66670;DHT22;53568;52.164;4.472;2022-09-29T03:49:05;11.68;76.27
66670;DHT22;53568;52.164;4.472;2022-09-29T03:51:31;11.67;76.49
66670;DHT22;53568;52.164;4.472;2022-09-29T03:53:56;11.66;76.39
66670;DHT22;53568;52.164;4.472;2022-09-29T03:56:22;11.74;76.24
66670;DHT22;53568;52.164;4.472;2022-09-29T03:58:48;11.70;76.06
66670;DHT22;53568;52.164;4.472;2022-09-29T04:01:13;11.68;75.98
66670;DHT22;53568;52.164;4.472;2022-09-29T04:03:39;11.68;75.83
66670;DHT22;53568;52.164;4.472;2022-09-29T04:06:04;11.71;75.74
66670;DHT22;53568;52.164;4.472;2022-09-29T04:08:30;11.70;75.64
66670;DHT22;53568;52.164;4.472;2022-09-29T04:10:55;11.73;75.57
66670;DHT22;53568;52.164;4.472;2022-09-29T04:13:21;11.74;75.51
66670;DHT22;53568;52.164;4.472;2022-09-29T04:15:47;11.74;75.44
66670;DHT22;53568;52.164;4.472;2022-09-29T04:18:13;11.77;75.25
66670;DHT22;53568;52.164;4.472;2022-09-29T04:20:39;11.70;75.34
66670;DHT22;53568;52.164;4.472;2022-09-29T04:23:05;11.67;75.64
66670;DHT22;53568;52.164;4.472;2022-09-29T04:25:32;11.64;75.61
66670;DHT22;53568;52.164;4.472;2022-09-29T04:27:58;11.63;75.65
66670;DHT22;53568;52.164;4.472;2022-09-29T04:30:23;11.58;75.39
66670;DHT22;53568;52.164;4.472;2022-09-29T04:32:49;11.53;75.47
66670;DHT22;53568;52.164;4.472;2022-09-29T04:35:14;11.46;75.59
66670;DHT22;53568;52.164;4.472;2022-09-29T04:37:40;11.43;75.75
66670;DHT22;53568;52.164;4.472;2022-09-29T04:40:06;11.38;76.03
66670;DHT22;53568;52.164;4.472;2022-09-29T04:42:32;11.37;75.88
66670;DHT22;53568;52.164;4.472;2022-09-29T04:44:57;11.33;76.08
66670;DHT22;53568;52.164;4.472;2022-09-29T04:47:23;11.23;76.48
66670;DHT22;53568;52.164;4.472;2022-09-29T04:49:48;11.22;76.60
66670;DHT22;53568;52.164;4.472;2022-09-29T04:52:14;11.13;76.44
66670;DHT22;53568;52.164;4.472;2022-09-29T04:54:39;11.12;76.33
66670;DHT22;53568;52.164;4.472;2022-09-29T04:57:05;11.07;76.48
66670;DHT22;53568;52.164;4.472;2022-09-29T04:59:31;11.13;76.47
66670;DHT22;53568;52.164;4.472;2022-09-29T05:01:57;11.06;76.49
66670;DHT22;53568;52.164;4.472;2022-09-29T05:04:23;11.04;76.54
66670;DHT22;53568;52.164;4.472;2022-09-29T05:06:48;11.04;76.55
66670;DHT22;53568;52.164;4.472;2022-09-29T05:09:14;11.09;76.23
66670;DHT22;53568;52.164;4.472;2022-09-29T05:11:39;10.97;76.20
66670;DHT22;53568;52.164;4.472;2022-09-29T05:14:05;10.93;76.31
66670;DHT22;53568;52.164;4.472;2022-09-29T05:16:30;10.72;77.14
66670;DHT22;53568;52.164;4.472;2022-09-29T05:18:56;10.65;77.40
66670;DHT22;53568;52.164;4.472;2022-09-29T05:21:22;10.70;77.40
66670;DHT22;53568;52.164;4.472;2022-09-29T05:23:47;10.73;77.57
66670;DHT22;53568;52.164;4.472;2022-09-29T05:26:14;10.75;77.45
66670;DHT22;53568;52.164;4.472;2022-09-29T05:28:44;10.86;77.02
66670;DHT22;53568;52.164;4.472;2022-09-29T05:31:11;10.86;77.05
66670;DHT22;53568;52.164;4.472;2022-09-29T05:33:36;10.82;76.99
66670;DHT22;53568;52.164;4.472;2022-09-29T05:36:06;10.69;76.96
66670;DHT22;53568;52.164;4.472;2022-09-29T05:38:34;10.70;77.17
66670;DHT22;53568;52.164;4.472;2022-09-29T05:41:04;10.75;76.90
66670;DHT22;53568;52.164;4.472;2022-09-29T05:43:30;10.79;76.95
66670;DHT22;53568;52.164;4.472;2022-09-29T05:46:03;10.82;76.79
66670;DHT22;53568;52.164;4.472;2022-09-29T05:48:29;10.84;76.50
66670;DHT22;53568;52.164;4.472;2022-09-29T05:50:58;10.82;76.51
66670;DHT22;53568;52.164;4.472;2022-09-29T05:53:25;10.72;76.73
66670;DHT22;53568;52.164;4.472;2022-09-29T05:55:51;10.69;76.88
66670;DHT22;53568;52.164;4.472;2022-09-29T05:58:17;10.73;76.98
66670;DHT22;53568;52.164;4.472;2022-09-29T06:00:43;10.72;76.76
66670;DHT22;53568;52.164;4.472;2022-09-29T06:03:09;10.76;76.85
66670;DHT22;53568;52.164;4.472;2022-09-29T06:05:37;10.70;76.89
66670;DHT22;53568;52.164;4.472;2022-09-29T06:08:04;10.76;76.64
66670;DHT22;53568;52.164;4.472;2022-09-29T06:10:30;10.77;76.78
66670;DHT22;53568;52.164;4.472;2022-09-29T06:12:56;10.75;76.89
66670;DHT22;53568;52.164;4.472;2022-09-29T06:15:22;10.73;77.25
66670;DHT22;53568;52.164;4.472;2022-09-29T06:17:56;10.83;77.24
66670;DHT22;53568;52.164;4.472;2022-09-29T06:20:22;10.86;76.84
66670;DHT22;53568;52.164;4.472;2022-09-29T06:22:48;10.95;76.77
66670;DHT22;53568;52.164;4.472;2022-09-29T06:25:15;10.90;76.45
66670;DHT22;53568;52.164;4.472;2022-09-29T06:27:41;10.88;76.53
66670;DHT22;53568;52.164;4.472;2022-09-29T06:30:07;10.82;76.60
66670;DHT22;53568;52.164;4.472;2022-09-29T06:32:32;10.86;76.81
66670;DHT22;53568;52.164;4.472;2022-09-29T06:34:58;10.89;76.76
66670;DHT22;53568;52.164;4.472;2022-09-29T06:37:44;10.92;77.04
66670;DHT22;53568;52.164;4.472;2022-09-29T06:40:11;10.97;77.12
66670;DHT22;53568;52.164;4.472;2022-09-29T06:42:37;11.04;76.86
66670;DHT22;53568;52.164;4.472;2022-09-29T06:45:04;11.09;76.85
66670;DHT22;53568;52.164;4.472;2022-09-29T06:47:30;11.13;76.75
66670;DHT22;53568;52.164;4.472;2022-09-29T06:49:55;11.17;76.82
66670;DHT22;53568;52.164;4.472;2022-09-29T06:52:22;11.22;76.35
66670;DHT22;53568;52.164;4.472;2022-09-29T06:54:47;11.19;76.68
66670;DHT22;53568;52.164;4.472;2022-09-29T06:57:13;11.23;76.81
66670;DHT22;53568;52.164;4.472;2022-09-29T06:59:38;11.22;76.79
66670;DHT22;53568;52.164;4.472;2022-09-29T07:02:04;11.28;76.81
66670;DHT22;53568;52.164;4.472;2022-09-29T07:04:30;11.33;76.35
66670;DHT22;53568;52.164;4.472;2022-09-29T07:06:55;11.33;75.91
66670;DHT22;53568;52.164;4.472;2022-09-29T07:09:21;11.19;76.44
66670;DHT22;53568;52.164;4.472;2022-09-29T07:11:50;11.14;76.61
66670;DHT22;53568;52.164;4.472;2022-09-29T07:14:20;11.17;76.88
66670;DHT22;53568;52.164;4.472;2022-09-29T07:16:50;11.20;76.74
66670;DHT22;53568;52.164;4.472;2022-09-29T07:19:17;11.17;76.79
66670;DHT22;53568;52.164;4.472;2022-09-29T07:21:44;11.27;76.91
66670;DHT22;53568;52.164;4.472;2022-09-29T07:24:09;11.34;76.93
66670;DHT22;53568;52.164;4.472;2022-09-29T07:26:35;11.40;76.67
66670;DHT22;53568;52.164;4.472;2022-09-29T07:29:01;11.41;76.89
66670;DHT22;53568;52.164;4.472;2022-09-29T07:31:27;11.46;76.98
66670;DHT22;53568;52.164;4.472;2022-09-29T07:33:55;11.61;76.83
66670;DHT22;53568;52.164;4.472;2022-09-29T07:36:21;11.66;76.43
66670;DHT22;53568;52.164;4.472;2022-09-29T07:38:48;11.74;76.47
66670;DHT22;53568;52.164;4.472;2022-09-29T07:41:15;11.75;76.57
66670;DHT22;53568;52.164;4.472;2022-09-29T07:43:41;11.78;76.62
66670;DHT22;53568;52.164;4.472;2022-09-29T07:46:08;11.78;76.77
66670;DHT22;53568;52.164;4.472;2022-09-29T07:48:34;11.78;76.76
66670;DHT22;53568;52.164;4.472;2022-09-29T07:51:05;11.84;76.95
66670;DHT22;53568;52.164;4.472;2022-09-29T07:53:31;11.97;76.89
66670;DHT22;53568;52.164;4.472;2022-09-29T07:56:09;12.05;76.82
66670;DHT22;53568;52.164;4.472;2022-09-29T07:58:36;12.11;76.62
66670;DHT22;53568;52.164;4.472;2022-09-29T08:01:04;12.15;76.71
66670;DHT22;53568;52.164;4.472;2022-09-29T08:03:31;12.22;76.62
66670;DHT22;53568;52.164;4.472;2022-09-29T08:05:57;12.38;76.39
66670;DHT22;53568;52.164;4.472;2022-09-29T08:08:24;12.41;76.53
66670;DHT22;53568;52.164;4.472;2022-09-29T08:10:50;12.52;76.30
66670;DHT22;53568;52.164;4.472;2022-09-29T08:13:15;12.60;76.14
66670;DHT22;53568;52.164;4.472;2022-09-29T08:15:41;12.66;76.17
66670;DHT22;53568;52.164;4.472;2022-09-29T08:18:07;12.75;75.99
66670;DHT22;53568;52.164;4.472;2022-09-29T08:20:34;12.80;76.08
66670;DHT22;53568;52.164;4.472;2022-09-29T08:23:01;12.79;76.00
66670;DHT22;53568;52.164;4.472;2022-09-29T08:25:26;12.87;76.14
66670;DHT22;53568;52.164;4.472;2022-09-29T08:27:52;13.03;75.83
66670;DHT22;53568;52.164;4.472;2022-09-29T08:30:18;13.14;75.69
66670;DHT22;53568;52.164;4.472;2022-09-29T08:32:50;13.19;75.23
66670;DHT22;53568;52.164;4.472;2022-09-29T08:35:15;13.13;75.56
66670;DHT22;53568;52.164;4.472;2022-09-29T08:37:41;13.13;75.78
66670;DHT22;53568;52.164;4.472;2022-09-29T08:40:07;13.19;75.92
66670;DHT22;53568;52.164;4.472;2022-09-29T08:42:59;13.24;75.63
66670;DHT22;53568;52.164;4.472;2022-09-29T08:45:32;13.43;75.61
66670;DHT22;53568;52.164;4.472;2022-09-29T08:48:10;13.58;75.30
66670;DHT22;53568;52.164;4.472;2022-09-29T08:50:45;13.58;75.02
66670;DHT22;53568;52.164;4.472;2022-09-29T08:53:15;13.68;74.65
66670;DHT22;53568;52.164;4.472;2022-09-29T08:58:19;13.92;74.63
66670;DHT22;53568;52.164;4.472;2022-09-29T09:17:45;14.61;72.22
66670;DHT22;53568;52.164;4.472;2022-09-29T09:22:54;14.62;72.59
66670;DHT22;53568;52.164;4.472;2022-09-29T09:25:37;14.73;72.49
66670;DHT22;53568;52.164;4.472;2022-09-29T09:28:16;14.83;72.17
66670;DHT22;53568;52.164;4.472;2022-09-29T09:33:53;14.99;71.67
66670;DHT22;53568;52.164;4.472;2022-09-29T09:39:04;15.08;71.24
66670;DHT22;53568;52.164;4.472;2022-09-29T09:41:34;15.20;70.68
66670;DHT22;53568;52.164;4.472;2022-09-29T09:44:26;15.26;69.85
66670;DHT22;53568;52.164;4.472;2022-09-29T09:46:59;15.23;69.64
66670;DHT22;53568;52.164;4.472;2022-09-29T09:49:30;15.22;69.45
66670;DHT22;53568;52.164;4.472;2022-09-29T09:52:13;15.24;69.28
66670;DHT22;53568;52.164;4.472;2022-09-29T09:54:52;15.31;67.49
66670;DHT22;53568;52.164;4.472;2022-09-29T10:02:33;15.47;67.55
66670;DHT22;53568;52.164;4.472;2022-09-29T10:04:59;15.50;66.82
66670;DHT22;53568;52.164;4.472;2022-09-29T10:07:28;15.33;67.03
66670;DHT22;53568;52.164;4.472;2022-09-29T10:09:55;15.51;66.91
66670;DHT22;53568;52.164;4.472;2022-09-29T10:12:23;15.60;66.18
66670;DHT22;53568;52.164;4.472;2022-09-29T10:15:04;15.64;65.53
66670;DHT22;53568;52.164;4.472;2022-09-29T10:17:41;15.71;65.82
66670;DHT22;53568;52.164;4.472;2022-09-29T10:20:08;15.64;66.80
66670;DHT22;53568;52.164;4.472;2022-09-29T10:22:35;15.77;66.87
66670;DHT22;53568;52.164;4.472;2022-09-29T10:25:20;15.90;65.58
66670;DHT22;53568;52.164;4.472;2022-09-29T10:27:50;15.97;65.49
66670;DHT22;53568;52.164;4.472;2022-09-29T10:30:30;16.09;64.20
66670;DHT22;53568;52.164;4.472;2022-09-29T10:33:00;16.11;64.35
66670;DHT22;53568;52.164;4.472;2022-09-29T10:35:37;16.21;62.57
66670;DHT22;53568;52.164;4.472;2022-09-29T10:38:22;16.22;62.83
66670;DHT22;53568;52.164;4.472;2022-09-29T10:43:26;16.51;61.96
66670;DHT22;53568;52.164;4.472;2022-09-29T10:45:52;16.59;61.65
66670;DHT22;53568;52.164;4.472;2022-09-29T10:48:25;16.63;61.45
66670;DHT22;53568;52.164;4.472;2022-09-29T10:55:52;16.72;57.88
66670;DHT22;53568;52.164;4.472;2022-09-29T10:58:31;16.58;58.99
66670;DHT22;53568;52.164;4.472;2022-09-29T11:01:11;16.68;59.19
66670;DHT22;53568;52.164;4.472;2022-09-29T11:03:49;16.82;55.71
66670;DHT22;53568;52.164;4.472;2022-09-29T11:06:25;16.75;55.64
66670;DHT22;53568;52.164;4.472;2022-09-29T11:09:27;16.60;56.77
66670;DHT22;53568;52.164;4.472;2022-09-29T11:11:54;16.58;56.90
66670;DHT22;53568;52.164;4.472;2022-09-29T11:17:01;16.87;56.54
66670;DHT22;53568;52.164;4.472;2022-09-29T11:19:31;16.66;55.90
66670;DHT22;53568;52.164;4.472;2022-09-29T11:28:01;17.03;56.23
66670;DHT22;53568;52.164;4.472;2022-09-29T11:31:10;16.80;57.58
66670;DHT22;53568;52.164;4.472;2022-09-29T11:36:45;16.63;58.16
66670;DHT22;53568;52.164;4.472;2022-09-29T11:39:46;16.70;56.56
66670;DHT22;53568;52.164;4.472;2022-09-29T11:42:43;16.52;56.49
66670;DHT22;53568;52.164;4.472;2022-09-29T11:45:14;16.49;56.84
66670;DHT22;53568;52.164;4.472;2022-09-29T11:50:34;16.62;56.47
66670;DHT22;53568;52.164;4.472;2022-09-29T12:07:30;17.20;54.81
66670;DHT22;53568;52.164;4.472;2022-09-29T12:13:06;16.63;54.83
66670;DHT22;53568;52.164;4.472;2022-09-29T12:15:49;16.30;56.07
66670;DHT22;53568;52.164;4.472;2022-09-29T12:18:36;16.25;56.68
66670;DHT22;53568;52.164;4.472;2022-09-29T12:21:07;16.32;57.11
66670;DHT22;53568;52.164;4.472;2022-09-29T12:23:36;16.29;57.30
66670;DHT22;53568;52.164;4.472;2022-09-29T12:26:09;16.04;58.69
66670;DHT22;53568;52.164;4.472;2022-09-29T12:28:59;15.97;58.51
66670;DHT22;53568;52.164;4.472;2022-09-29T12:31:47;16.02;58.54
66670;DHT22;53568;52.164;4.472;2022-09-29T12:34:27;16.11;58.77
66670;DHT22;53568;52.164;4.472;2022-09-29T12:37:09;15.98;58.17
66670;DHT22;53568;52.164;4.472;2022-09-29T12:39:48;16.00;58.68
66670;DHT22;53568;52.164;4.472;2022-09-29T12:45:32;15.87;57.23
66670;DHT22;53568;52.164;4.472;2022-09-29T12:48:24;15.87;57.58
66670;DHT22;53568;52.164;4.472;2022-09-29T12:51:00;15.94;57.58
66670;DHT22;53568;52.164;4.472;2022-09-29T12:56:43;16.02;58.65
66670;DHT22;53568;52.164;4.472;2022-09-29T13:01:56;16.12;61.95
66670;DHT22;53568;52.164;4.472;2022-09-29T13:05:02;16.12;61.80
66670;DHT22;53568;52.164;4.472;2022-09-29T13:07:48;16.26;61.53
66670;DHT22;53568;52.164;4.472;2022-09-29T13:22:14;17.07;58.90
66670;DHT22;53568;52.164;4.472;2022-09-29T13:24:42;17.30;58.11
66670;DHT22;53568;52.164;4.472;2022-09-29T13:27:21;17.46;57.51
66670;DHT22;53568;52.164;4.472;2022-09-29T13:30:21;17.54;56.12
66670;DHT22;53568;52.164;4.472;2022-09-29T13:33:08;17.47;55.81
66670;DHT22;53568;52.164;4.472;2022-09-29T13:35:40;17.44;55.69
66670;DHT22;53568;52.164;4.472;2022-09-29T13:44:19;16.60;57.38
66670;DHT22;53568;52.164;4.472;2022-09-29T13:46:45;16.63;57.33
66670;DHT22;53568;52.164;4.472;2022-09-29T13:51:49;16.32;57.31
66670;DHT22;53568;52.164;4.472;2022-09-29T13:54:40;16.30;57.55
66670;DHT22;53568;52.164;4.472;2022-09-29T13:57:18;16.45;56.87
66670;DHT22;53568;52.164;4.472;2022-09-29T14:00:00;16.53;57.14
66670;DHT22;53568;52.164;4.472;2022-09-29T14:02:29;16.46;57.42
66670;DHT22;53568;52.164;4.472;2022-09-29T14:04:56;16.65;57.30
66670;DHT22;53568;52.164;4.472;2022-09-29T14:07:47;16.44;58.02
66670;DHT22;53568;52.164;4.472;2022-09-29T14:10:37;16.60;57.73
66670;DHT22;53568;52.164;4.472;2022-09-29T14:13:14;16.60;57.49
66670;DHT22;53568;52.164;4.472;2022-09-29T14:21:03;16.79;54.95
66670;DHT22;53568;52.164;4.472;2022-09-29T14:26:43;16.49;55.13
66670;DHT22;53568;52.164;4.472;2022-09-29T14:29:24;16.52;54.18
66670;DHT22;53568;52.164;4.472;2022-09-29T14:31:55;16.69;53.90
66670;DHT22;53568;52.164;4.472;2022-09-29T14:34:25;16.62;52.85
66670;DHT22;53568;52.164;4.472;2022-09-29T14:36:53;16.70;52.30
66670;DHT22;53568;52.164;4.472;2022-09-29T14:39:21;16.52;50.95
66670;DHT22;53568;52.164;4.472;2022-09-29T14:41:48;16.49;51.03
66670;DHT22;53568;52.164;4.472;2022-09-29T14:44:23;16.49;50.95
66670;DHT22;53568;52.164;4.472;2022-09-29T14:47:18;16.49;51.75
66670;DHT22;53568;52.164;4.472;2022-09-29T14:53:43;16.36;52.01
66670;DHT22;53568;52.164;4.472;2022-09-29T14:59:34;16.53;50.93
66670;DHT22;53568;52.164;4.472;2022-09-29T15:02:21;16.29;51.55
66670;DHT22;53568;52.164;4.472;2022-09-29T15:04:48;16.12;51.31
66670;DHT22;53568;52.164;4.472;2022-09-29T15:07:20;16.42;51.25
66670;DHT22;53568;52.164;4.472;2022-09-29T15:09:50;16.52;50.17
66670;DHT22;53568;52.164;4.472;2022-09-29T15:12:27;16.44;50.90
66670;DHT22;53568;52.164;4.472;2022-09-29T15:14:57;16.39;51.12
66670;DHT22;53568;52.164;4.472;2022-09-29T15:17:34;16.33;49.80
66670;DHT22;53568;52.164;4.472;2022-09-29T15:20:16;16.39;50.02
66670;DHT22;53568;52.164;4.472;2022-09-29T15:25:41;16.46;53.65
66670;DHT22;53568;52.164;4.472;2022-09-29T15:28:25;16.36;55.03
66670;DHT22;53568;52.164;4.472;2022-09-29T15:30:52;16.44;54.38
66670;DHT22;53568;52.164;4.472;2022-09-29T15:33:25;16.46;54.46
66670;DHT22;53568;52.164;4.472;2022-09-29T15:36:02;16.36;54.35
66670;DHT22;53568;52.164;4.472;2022-09-29T15:38:34;16.36;54.60
66670;DHT22;53568;52.164;4.472;2022-09-29T15:41:14;16.38;54.04
66670;DHT22;53568;52.164;4.472;2022-09-29T15:43:56;16.19;54.52
66670;DHT22;53568;52.164;4.472;2022-09-29T15:51:44;16.19;54.28
66670;DHT22;53568;52.164;4.472;2022-09-29T15:54:13;16.18;53.57
66670;DHT22;53568;52.164;4.472;2022-09-29T15:56:40;16.11;54.56
66670;DHT22;53568;52.164;4.472;2022-09-29T15:59:38;16.04;53.43
66670;DHT22;53568;52.164;4.472;2022-09-29T16:02:14;16.06;54.32
66670;DHT22;53568;52.164;4.472;2022-09-29T16:04:44;16.05;55.67
66670;DHT22;53568;52.164;4.472;2022-09-29T16:07:27;16.04;56.17
66670;DHT22;53568;52.164;4.472;2022-09-29T16:10:15;16.06;56.84
66670;DHT22;53568;52.164;4.472;2022-09-29T16:12:54;15.97;57.05
66670;DHT22;53568;52.164;4.472;2022-09-29T16:15:33;15.95;57.59
66670;DHT22;53568;52.164;4.472;2022-09-29T16:18:08;15.81;58.23
66670;DHT22;53568;52.164;4.472;2022-09-29T16:20:35;15.90;58.32
66670;DHT22;53568;52.164;4.472;2022-09-29T16:23:23;15.88;58.73
66670;DHT22;53568;52.164;4.472;2022-09-29T16:26:12;15.88;59.10
66670;DHT22;53568;52.164;4.472;2022-09-29T16:28:57;16.01;59.28
66670;DHT22;53568;52.164;4.472;2022-09-29T16:31:26;15.95;59.15
66670;DHT22;53568;52.164;4.472;2022-09-29T16:33:55;15.94;59.49
66670;DHT22;53568;52.164;4.472;2022-09-29T16:36:29;15.87;59.61
66670;DHT22;53568;52.164;4.472;2022-09-29T16:39:03;15.78;60.32
66670;DHT22;53568;52.164;4.472;2022-09-29T16:41:34;15.78;60.60
66670;DHT22;53568;52.164;4.472;2022-09-29T16:44:25;15.95;60.24
66670;DHT22;53568;52.164;4.472;2022-09-29T16:46:58;15.91;60.49
66670;DHT22;53568;52.164;4.472;2022-09-29T16:49:28;15.81;60.41
66670;DHT22;53568;52.164;4.472;2022-09-29T16:52:46;15.75;60.71
66670;DHT22;53568;52.164;4.472;2022-09-29T16:54:48;15.78;60.90
66670;DHT22;53568;52.164;4.472;2022-09-29T16:57:27;15.74;61.22
66670;DHT22;53568;52.164;4.472;2022-09-29T16:59:57;15.77;61.43
66670;DHT22;53568;52.164;4.472;2022-09-29T17:02:25;15.80;61.60
66670;DHT22;53568;52.164;4.472;2022-09-29T17:04:52;15.74;61.77
66670;DHT22;53568;52.164;4.472;2022-09-29T17:07:20;15.85;61.50
66670;DHT22;53568;52.164;4.472;2022-09-29T17:09:49;15.92;61.59
66670;DHT22;53568;52.164;4.472;2022-09-29T17:12:16;15.80;61.89
66670;DHT22;53568;52.164;4.472;2022-09-29T17:14:43;15.78;61.81
66670;DHT22;53568;52.164;4.472;2022-09-29T17:17:32;15.88;61.41
66670;DHT22;53568;52.164;4.472;2022-09-29T17:19:58;15.90;61.41
66670;DHT22;53568;52.164;4.472;2022-09-29T17:22:30;15.85;61.82
66670;DHT22;53568;52.164;4.472;2022-09-29T17:24:57;15.85;61.68
66670;DHT22;53568;52.164;4.472;2022-09-29T17:27:24;15.88;61.71
66670;DHT22;53568;52.164;4.472;2022-09-29T17:30:09;15.90;61.55
66670;DHT22;53568;52.164;4.472;2022-09-29T17:32:34;15.95;61.57
66670;DHT22;53568;52.164;4.472;2022-09-29T17:35:01;15.84;61.32
66670;DHT22;53568;52.164;4.472;2022-09-29T17:37:26;15.78;61.59
66670;DHT22;53568;52.164;4.472;2022-09-29T17:39:52;15.78;61.96
66670;DHT22;53568;52.164;4.472;2022-09-29T17:42:17;15.75;62.07
66670;DHT22;53568;52.164;4.472;2022-09-29T17:44:43;15.88;61.77
66670;DHT22;53568;52.164;4.472;2022-09-29T17:47:13;15.88;61.72
66670;DHT22;53568;52.164;4.472;2022-09-29T17:49:42;15.78;61.60
66670;DHT22;53568;52.164;4.472;2022-09-29T17:52:08;15.77;61.86
66670;DHT22;53568;52.164;4.472;2022-09-29T17:54:37;15.70;62.44
66670;DHT22;53568;52.164;4.472;2022-09-29T17:57:03;15.77;62.35
66670;DHT22;53568;52.164;4.472;2022-09-29T17:59:29;15.84;62.06
66670;DHT22;53568;52.164;4.472;2022-09-29T18:01:56;15.90;61.93
66670;DHT22;53568;52.164;4.472;2022-09-29T18:04:22;15.88;61.79
66670;DHT22;53568;52.164;4.472;2022-09-29T18:06:49;15.85;62.15
66670;DHT22;53568;52.164;4.472;2022-09-29T18:09:16;15.94;62.04
66670;DHT22;53568;52.164;4.472;2022-09-29T18:11:42;15.90;62.21
66670;DHT22;53568;52.164;4.472;2022-09-29T18:14:08;15.95;62.28
66670;DHT22;53568;52.164;4.472;2022-09-29T18:16:34;15.94;62.42
66670;DHT22;53568;52.164;4.472;2022-09-29T18:19:02;15.95;62.46
66670;DHT22;53568;52.164;4.472;2022-09-29T18:21:28;15.92;62.32
66670;DHT22;53568;52.164;4.472;2022-09-29T18:23:58;15.94;62.44
66670;DHT22;53568;52.164;4.472;2022-09-29T18:26:24;15.90;62.48
66670;DHT22;53568;52.164;4.472;2022-09-29T18:28:52;15.90;62.65
66670;DHT22;53568;52.164;4.472;2022-09-29T18:31:24;15.88;62.75
66670;DHT22;53568;52.164;4.472;2022-09-29T18:33:51;15.90;62.85
66670;DHT22;53568;52.164;4.472;2022-09-29T18:36:17;15.94;62.95
66670;DHT22;53568;52.164;4.472;2022-09-29T18:38:43;15.90;62.92
66670;DHT22;53568;52.164;4.472;2022-09-29T18:41:13;15.91;62.77